Osage, OK (74054)

11:59 PM CDT del 23 Agosto 2016 (GMT -0500)
Keystone Lake | | Change Station

Alt. 900 ft 36.15 °N, 96.37 °W | Updated 2 seconds ago

Clear
Sereno
81.2 °F
Sembra 85 °F
N
0.0
Vento Variabile Vento da SO
Gusts 5.0 mph

Oggi
Massima -- | Minima -- °F
--% Possibilità di precip.
Ieri
Massima -- | Minima -- °F
Precip. -- in
Pressione 30.01 in
Visibilità 10.0 miglia
Nuvole Sereno
Indice di calore 85 °F
Punto di rugiada 70 °F
Umidità 69%
Piovosità 0.02 in
Spessore del manto nevoso Non disponibile.
6:50 AM 8:05 PM
Gobba a levante, 61% visible
METAR KOWP 240435Z AUTO 17009G15KT 10SM CLR 29/22 A3001 RMK AO2 T02900220
Pressione 30.01 in
Visibilità 10.0 miglia
Nuvole Sereno
Indice di calore 85 °F
Punto di rugiada 70 °F
Umidità 69%
Piovosità 0.02 in
Spessore del manto nevoso Non disponibile.
6:50 AM 8:05 PM
Gobba a levante, 61% visible
METAR KOWP 240435Z AUTO 17009G15KT 10SM CLR 29/22 A3001 RMK AO2 T02900220

10-Day Weather Forecast

Almanac

Astronomia

Aug. 23, 2016 Alba Tramonto
Ora attuale
Crepuscolo civile
Crepuscolo nautico
Crepuscolo astronomico
Luna
Estensione della luce visibile
Lunghezza del giorno
Tomorrow will be .
, % of the Moon is Illuminated

Gli estremi di oggi

State Highs State Lows

Community

WunderPhotos

Upload Photos

1,934,554 foto caricate!

WunderBlog® & News

Nearby

Qualità dell'aria

  Qualità dell'aria Indice AQ Inquinante
Not available.

Profondità neve

Stazione Profondità Altitudine

Attività sismica

Città  Distanza Mag. Data & Ora
Minimo Magnitudo Mostrato è 2.5.

Temperature delle acque costiere

Località Temperatura

Stations

Stazioni meteo nelle vicinanze

Ubicazione della stazione Temp. Raffreddamento del vento Punto di rugiada Umidità Vento Precip. Alt. Aggiornato Tipo
                   

Watches & Warnings

There are currently no watches in effect.